Time;durP1;ratioP1;P1;durP2;ratioP2;P2;SDS_P1;SDS_P2;PMS_P1;PMS_P2;Temp;Humidity;BMP_temperature;BMP_pressure;BME280_temperature;BME280_humidity;BME280_pressure;Samples;Min_cycle;Max_cycle;Signal;HPM_P1;HPM_P2
2021/12/14 00:00:12;;;;;;;35.22;20.05;;;;;;;8.12;88.09;102585.50;5073039;28;20108;-44
2021/12/14 00:02:41;;;;;;;33.15;20.23;;;;;;;8.11;88.13;102583.78;5090350;28;20054;-46
2021/12/14 00:05:08;;;;;;;35.85;20.27;;;;;;;8.12;87.85;102590.84;5083169;28;20111;-45
2021/12/14 00:07:34;;;;;;;39.58;21.98;;;;;;;8.12;88.13;102606.09;5095626;28;20027;-44
2021/12/14 00:10:12;;;;;;;33.38;19.95;;;;;;;8.12;88.06;102606.94;5095606;28;20027;-45
2021/12/14 00:12:53;;;;;;;39.42;20.42;;;;;;;8.12;88.32;102606.94;5090836;28;20020;-45
2021/12/14 00:15:18;;;;;;;34.90;20.80;;;;;;;8.13;88.04;102597.91;5082033;28;20100;-44
2021/12/14 00:17:51;;;;;;;34.35;20.95;;;;;;;8.13;88.19;102587.19;5075161;28;20468;-44
2021/12/14 00:20:16;;;;;;;39.03;21.08;;;;;;;8.12;88.06;102595.38;5073961;28;20027;-44
2021/12/14 00:25:21;;;;;;;;;;;;;;;8.10;88.62;102606.22;5075509;28;20489;-44
2021/12/14 00:27:46;;;;;;;36.65;20.77;;;;;;;8.10;88.40;102600.84;5073731;28;19913;-45
2021/12/14 00:30:11;;;;;;;31.55;20.38;;;;;;;8.09;88.36;102591.09;5075012;28;20471;-44
2021/12/14 00:32:38;;;;;;;36.67;21.58;;;;;;;8.09;88.56;102601.81;5075127;28;20067;-44
2021/12/14 00:35:10;;;;;;;34.28;21.70;;;;;;;8.09;88.52;102587.56;5074980;28;20083;-44
2021/12/14 00:37:39;;;;;;;37.72;21.48;;;;;;;8.09;88.45;102591.09;5075262;28;20022;-44
2021/12/14 00:40:12;;;;;;;36.60;21.33;;;;;;;8.11;88.32;102583.78;5074900;28;20468;-44
2021/12/14 00:42:37;;;;;;;33.30;20.77;;;;;;;8.12;88.35;102585.50;5089071;28;20032;-43
2021/12/14 00:45:04;;;;;;;37.55;21.70;;;;;;;8.12;88.44;102590.00;5094957;28;20130;-43
2021/12/14 00:47:29;;;;;;;41.35;23.02;;;;;;;8.11;88.89;102585.63;5095083;28;20020;-44
2021/12/14 00:49:55;;;;;;;39.08;22.15;;;;;;;8.12;88.24;102573.91;5094961;28;20085;-45
2021/12/14 00:52:20;;;;;;;37.75;22.63;;;;;;;8.10;88.78;102576.69;5079626;28;20024;-44
2021/12/14 00:54:46;;;;;;;39.30;23.05;;;;;;;8.10;88.55;102576.69;5074513;28;20504;-44
2021/12/14 00:57:12;;;;;;;39.80;23.13;;;;;;;8.05;88.40;102554.78;5074604;28;20434;-44
2021/12/14 00:59:38;;;;;;;41.92;24.00;;;;;;;8.06;88.85;102543.09;5074529;28;20028;-44
2021/12/14 01:02:08;;;;;;;40.78;23.85;;;;;;;8.07;89.14;102554.66;5074638;28;20031;-44
2021/12/14 01:04:52;;;;;;;43.13;24.67;;;;;;;8.07;89.22;102555.50;5074456;28;20024;-44
2021/12/14 01:07:19;;;;;;;40.40;24.20;;;;;;;8.03;89.69;102545.13;5075483;28;20112;-44
2021/12/14 01:09:51;;;;;;;41.67;24.83;;;;;;;8.01;89.37;102537.25;5074392;28;20050;-45
2021/12/14 01:12:31;;;;;;;41.95;25.20;;;;;;;7.99;89.48;102539.19;5073787;28;20043;-44
2021/12/14 01:15:12;;;;;;;45.10;25.88;;;;;;;7.97;90.14;102538.44;5073158;28;20134;-45
2021/12/14 01:17:55;;;;;;;46.03;26.55;;;;;;;7.98;89.85;102534.81;5073143;28;20016;-43
2021/12/14 01:20:21;;;;;;;43.53;26.05;;;;;;;8.01;89.80;102523.84;5081370;28;20063;-43
2021/12/14 01:22:58;;;;;;;44.78;25.70;;;;;;;7.96;90.20;102535.91;5083021;28;20060;-44
2021/12/14 01:25:35;;;;;;;49.92;25.95;;;;;;;7.99;90.60;102530.28;5074131;28;20059;-43
2021/12/14 01:28:06;;;;;;;45.50;26.85;;;;;;;7.97;90.26;102532.25;5093517;28;20032;-45
2021/12/14 01:30:55;;;;;;;46.38;26.67;;;;;;;7.93;90.28;102530.78;5094014;28;20052;-43
2021/12/14 01:33:23;;;;;;;48.42;28.17;;;;;;;7.93;90.74;102542.38;5092405;28;20024;-43
2021/12/14 01:35:49;;;;;;;51.13;28.35;;;;;;;7.90;90.66;102537.25;5094095;28;20060;-44
2021/12/14 01:38:31;;;;;;;48.60;27.52;;;;;;;7.93;90.79;102545.06;5093945;28;20035;-43
2021/12/14 01:41:02;;;;;;;47.53;27.30;;;;;;;7.90;90.43;102546.16;5093960;28;20032;-45
2021/12/14 01:43:55;;;;;;;49.85;27.60;;;;;;;7.91;90.63;102541.63;5094056;28;20027;-44
2021/12/14 01:46:42;;;;;;;51.65;28.42;;;;;;;7.92;90.90;102540.63;5091309;28;20467;-44
2021/12/14 01:49:10;;;;;;;47.50;28.55;;;;;;;7.89;90.96;102544.41;5076744;28;20028;-45
2021/12/14 01:51:38;;;;;;;48.65;28.38;;;;;;;7.88;91.16;102537.38;5071790;28;20048;-44
2021/12/14 01:54:05;;;;;;;52.28;28.58;;;;;;;7.89;91.06;102540.88;5072803;28;20090;-44
2021/12/14 01:56:32;;;;;;;50.80;29.75;;;;;;;7.86;90.84;102542.00;5073155;28;20399;-43
2021/12/14 01:59:01;;;;;;;52.28;30.20;;;;;;;7.84;91.30;102567.22;5073089;28;20392;-43
2021/12/14 02:01:37;;;;;;;55.08;30.33;;;;;;;7.85;91.00;102556.38;5073617;28;20028;-43
2021/12/14 02:04:09;;;;;;;49.63;29.33;;;;;;;7.87;91.20;102543.72;5081683;28;20036;-44
2021/12/14 02:06:34;;;;;;;54.28;30.70;;;;;;;7.83;90.91;102558.31;5093914;28;20429;-43
2021/12/14 02:09:20;;;;;;;50.42;28.80;;;;;;;7.87;91.05;102545.50;5075721;28;20032;-43
2021/12/14 02:11:49;;;;;;;53.33;29.30;;;;;;;7.86;90.98;102546.50;5091759;28;20501;-44
2021/12/14 02:14:15;;;;;;;46.55;28.10;;;;;;;7.84;91.12;102564.53;5093676;28;20028;-44
2021/12/14 02:16:41;;;;;;;50.45;29.23;;;;;;;7.82;91.20;102562.00;5093916;28;20418;-43
2021/12/14 02:19:11;;;;;;;52.65;29.77;;;;;;;7.83;91.29;102552.97;5093432;28;20036;-45
2021/12/14 02:21:38;;;;;;;50.03;28.88;;;;;;;7.83;90.89;102546.75;5076039;28;20028;-44
2021/12/14 02:24:05;;;;;;;49.17;29.05;;;;;;;7.83;91.28;102546.75;5089148;28;20039;-43
2021/12/14 02:26:33;;;;;;;49.20;29.52;;;;;;;7.79;91.39;102553.31;5093674;28;20093;-43
2021/12/14 06:42:20;;;;;;;53.38;23.10;;;;;;;7.68;91.39;102565.75;5069510;28;20382;-44
2021/12/14 06:44:46;;;;;;;48.25;23.35;;;;;;;7.68;91.54;102565.75;5069863;28;20489;-44
2021/12/14 06:47:11;;;;;;;48.95;24.02;;;;;;;7.70;91.50;102566.47;5070449;28;20033;-43
2021/12/14 06:49:37;;;;;;;46.60;23.95;;;;;;;7.74;91.84;102574.28;5069670;28;20032;-44
2021/12/14 06:52:03;;;;;;;50.92;23.00;;;;;;;7.77;91.53;102579.41;5070022;28;20124;-42
2021/12/14 06:54:29;;;;;;;56.58;23.75;;;;;;;7.80;91.10;102579.16;5049770;28;20128;-44
2021/12/14 06:56:58;;;;;;;50.65;24.63;;;;;;;7.80;91.29;102579.16;5058734;28;20048;-43
2021/12/14 06:59:24;;;;;;;47.53;23.58;;;;;;;7.79;91.40;102588.16;5047525;28;20132;-43
2021/12/14 07:01:53;;;;;;;49.13;24.08;;;;;;;7.80;91.27;102584.53;5049194;28;20021;-43
2021/12/14 07:04:21;;;;;;;47.38;24.73;;;;;;;7.83;91.27;102574.41;5056274;28;20045;-43
2021/12/14 07:06:53;;;;;;;54.38;23.77;;;;;;;7.84;91.54;102577.94;5068856;28;20036;-44
2021/12/14 07:09:50;;;;;;;55.05;25.02;;;;;;;7.85;91.49;102585.03;5048360;28;20179;-43
2021/12/14 07:12:21;;;;;;;52.75;24.40;;;;;;;7.84;91.89;102577.94;5048496;28;20045;-44
2021/12/14 07:14:50;;;;;;;50.25;24.33;;;;;;;7.86;91.63;102581.34;5068227;28;20055;-45
2021/12/14 07:17:26;;;;;;;60.15;24.05;;;;;;;7.87;91.51;102581.25;5068052;28;20024;-43
2021/12/14 07:19:53;;;;;;;55.35;23.95;;;;;;;7.87;92.01;102575.88;5068188;28;20020;-43
2021/12/14 07:22:33;;;;;;;52.13;24.02;;;;;;;7.90;92.28;102580.16;5068799;28;20441;-43
2021/12/14 07:25:08;;;;;;;52.60;24.33;;;;;;;7.93;92.33;102585.25;5068574;28;20183;-44
2021/12/14 07:27:38;;;;;;;51.35;25.13;;;;;;;7.88;92.82;102590.13;5066135;28;20380;-43
2021/12/14 07:30:17;;;;;;;54.22;25.92;;;;;;;7.91;93.75;102597.94;5055740;28;20032;-44
2021/12/14 07:32:51;;;;;;;60.50;26.55;;;;;;;7.86;94.14;102597.44;5066546;28;20039;-44
2021/12/14 07:35:21;;;;;;;71.10;27.13;;;;;;;7.84;94.71;102604.75;5052641;28;20021;-44
2021/12/14 07:37:47;;;;;;;64.65;28.77;;;;;;;7.83;95.31;102611.94;5059623;28;20484;-45
2021/12/14 07:40:13;;;;;;;62.67;27.48;;;;;;;7.85;95.38;102603.78;5047779;28;20131;-45
2021/12/14 07:42:38;;;;;;;65.85;28.40;;;;;;;7.87;95.41;102608.06;5055797;28;20116;-44
2021/12/14 07:45:06;;;;;;;62.47;27.70;;;;;;;7.85;95.66;102609.16;5058811;28;20032;-43
2021/12/14 07:47:32;;;;;;;62.17;28.00;;;;;;;7.82;96.06;102604.88;5058571;28;20031;-43
2021/12/14 07:49:57;;;;;;;65.18;28.40;;;;;;;7.81;96.21;102613.03;5053564;28;20104;-43
2021/12/14 07:52:28;;;;;;;72.22;29.38;;;;;;;7.79;96.57;102615.81;5044887;28;20048;-43
2021/12/14 07:55:00;;;;;;;73.63;30.08;;;;;;;7.82;97.15;102620.09;5034381;28;20076;-44
2021/12/14 07:57:33;;;;;;;67.82;27.88;;;;;;;7.82;97.26;102622.75;5040586;28;20116;-45
2021/12/14 08:00:02;;;;;;;63.15;29.00;;;;;;;7.85;97.46;102625.22;5038451;28;20048;-44
2021/12/14 08:02:31;;;;;;;80.70;30.45;;;;;;;7.87;97.16;102623.25;5044977;28;20131;-45
2021/12/14 08:05:02;;;;;;;69.47;29.13;;;;;;;7.88;97.17;102624.97;5045701;28;20028;-45
2021/12/14 08:07:35;;;;;;;75.78;29.45;;;;;;;7.92;97.14;102621.06;5055888;28;20022;-46
2021/12/14 08:10:13;;;;;;;73.40;29.42;;;;;;;7.92;97.24;102626.44;5036198;28;20481;-44
2021/12/14 08:12:55;;;;;;;71.82;30.20;;;;;;;7.94;97.09;102629.00;5036672;28;20112;-43
2021/12/14 08:15:26;;;;;;;74.55;29.58;;;;;;;7.92;97.34;102629.13;5053938;28;20518;-43
2021/12/14 08:18:09;;;;;;;76.55;30.85;;;;;;;7.95;97.38;102634.22;5039055;28;20065;-45
2021/12/14 08:20:39;;;;;;;70.47;30.17;;;;;;;7.97;97.29;102640.34;5043316;28;20586;-44
2021/12/14 08:23:18;;;;;;;79.47;31.67;;;;;;;7.96;97.30;102635.94;5042705;28;20025;-45
2021/12/14 08:25:44;;;;;;;73.00;30.55;;;;;;;7.96;97.34;102638.63;5054298;28;20087;-43
2021/12/14 08:28:10;;;;;;;75.70;31.52;;;;;;;7.97;97.41;102634.97;5053454;28;20500;-44
2021/12/14 08:30:38;;;;;;;79.63;32.40;;;;;;;7.99;97.63;102640.22;5049769;28;20166;-43
2021/12/14 08:33:04;;;;;;;79.75;34.03;;;;;;;7.99;97.55;102638.38;5041523;28;20029;-44
2021/12/14 08:35:30;;;;;;;80.00;31.75;;;;;;;8.01;97.73;102652.53;5040147;28;20075;-44
2021/12/14 08:38:00;;;;;;;74.93;33.33;;;;;;;8.02;97.71;102656.06;5052859;28;20065;-45
2021/12/14 08:40:35;;;;;;;85.25;34.35;;;;;;;7.97;97.70;102656.41;5045094;28;20099;-44
2021/12/14 08:43:21;;;;;;;78.38;33.03;;;;;;;7.96;97.20;102657.41;5043765;28;20032;-44
2021/12/14 08:45:54;;;;;;;82.57;32.38;;;;;;;8.01;97.58;102657.06;5043301;28;20021;-44
2021/12/14 08:48:33;;;;;;;74.75;32.60;;;;;;;7.97;97.50;102661.78;5051509;28;20086;-45
2021/12/14 08:51:13;;;;;;;74.15;30.95;;;;;;;7.98;97.42;102651.91;5053726;28;20055;-45
2021/12/14 08:54:09;;;;;;;74.38;33.33;;;;;;;8.00;97.53;102661.53;5048159;28;20025;-45
2021/12/14 08:56:39;;;;;;;74.28;31.42;;;;;;;8.04;97.41;102667.53;5035797;28;20036;-44
2021/12/14 08:59:05;;;;;;;77.15;31.48;;;;;;;8.05;97.29;102669.22;5053569;28;20040;-45
2021/12/14 09:01:31;;;;;;;77.57;31.55;;;;;;;8.09;97.04;102660.81;5047924;28;20036;-45
2021/12/14 09:04:13;;;;;;;72.97;32.20;;;;;;;8.10;96.83;102651.78;5042833;28;20058;-46
2021/12/14 09:06:40;;;;;;;68.85;30.80;;;;;;;8.10;96.68;102646.44;5042639;28;20473;-44
2021/12/14 09:09:11;;;;;;;71.43;30.25;;;;;;;8.07;96.76;102648.50;5042710;28;20018;-45
2021/12/14 09:11:39;;;;;;;70.57;30.13;;;;;;;8.07;96.96;102654.72;5038358;28;20439;-46
2021/12/14 09:14:09;;;;;;;69.65;31.25;;;;;;;8.10;96.69;102653.63;5045725;28;20028;-45
2021/12/14 09:16:36;;;;;;;62.88;29.80;;;;;;;8.10;96.96;102649.13;5042217;28;20071;-45
2021/12/14 09:19:07;;;;;;;68.78;29.90;;;;;;;8.11;96.66;102650.84;5039494;28;20036;-44
2021/12/14 09:21:37;;;;;;;66.22;30.98;;;;;;;8.16;96.93;102650.44;5035272;28;20078;-44
2021/12/14 09:24:15;;;;;;;71.70;29.17;;;;;;;8.20;96.43;102653.75;5035106;28;20433;-43
2021/12/14 09:26:54;;;;;;;64.55;30.30;;;;;;;8.23;96.13;102650.84;5052501;28;20408;-43
2021/12/14 09:29:21;;;;;;;65.95;27.90;;;;;;;8.28;96.12;102659.38;5050296;28;20031;-44
2021/12/14 09:31:50;;;;;;;62.60;27.55;;;;;;;8.33;95.82;102665.22;5040641;28;20060;-44
2021/12/14 09:34:18;;;;;;;65.93;27.00;;;;;;;8.31;95.79;102661.81;5040313;28;20028;-46
2021/12/14 09:36:45;;;;;;;70.05;27.05;;;;;;;8.33;95.74;102673.28;5043847;28;20431;-42
2021/12/14 09:39:24;;;;;;;72.32;28.10;;;;;;;8.31;95.80;102676.06;5031543;28;20452;-45
2021/12/14 09:41:53;;;;;;;64.25;27.30;;;;;;;8.34;95.90;102674.97;5051048;28;20571;-45
2021/12/14 09:44:21;;;;;;;58.63;25.00;;;;;;;8.34;96.16;102674.97;5045311;28;20090;-42
2021/12/14 09:46:48;;;;;;;61.75;26.30;;;;;;;8.38;95.67;102670.22;5039172;28;20041;-41
2021/12/14 09:49:15;;;;;;;56.83;26.55;;;;;;;8.40;95.91;102673.66;5048086;28;20029;-42
2021/12/14 09:51:46;;;;;;;56.80;26.35;;;;;;;8.40;95.65;102682.56;5049227;28;20119;-43
2021/12/14 09:54:16;;;;;;;65.78;27.67;;;;;;;8.43;95.38;102682.31;5042181;28;20028;-43
2021/12/14 09:56:46;;;;;;;73.55;27.73;;;;;;;8.46;95.46;102670.50;5045947;28;20028;-44
2021/12/14 09:59:12;;;;;;;60.20;26.58;;;;;;;8.46;95.72;102663.28;5032110;28;20029;-43
2021/12/14 10:01:50;;;;;;;51.92;25.65;;;;;;;8.44;95.99;102670.59;5038132;28;20560;-43
2021/12/14 10:04:19;;;;;;;57.67;27.15;;;;;;;8.49;95.84;102673.78;5048365;28;20060;-43
2021/12/14 10:06:45;;;;;;;52.42;27.45;;;;;;;8.48;95.97;102669.41;5044425;28;20030;-43
2021/12/14 10:09:15;;;;;;;59.72;27.10;;;;;;;8.50;96.25;102674.63;5036343;28;20029;-44
2021/12/14 10:12:03;;;;;;;69.18;29.42;;;;;;;8.49;96.36;102668.41;5031788;28;20740;-43
2021/12/14 10:14:35;;;;;;;61.17;27.33;;;;;;;8.44;96.36;102673.28;5046026;28;20059;-45
2021/12/14 10:17:02;;;;;;;66.68;29.13;;;;;;;8.36;97.34;102667.66;5039874;28;20025;-44
2021/12/14 10:19:30;;;;;;;70.10;29.60;;;;;;;8.35;97.16;102674.00;5041137;28;20458;-43
2021/12/14 10:22:00;;;;;;;75.75;31.02;;;;;;;8.37;97.62;102666.66;5033982;28;20036;-43
2021/12/14 10:24:25;;;;;;;67.15;30.35;;;;;;;8.38;97.86;102671.06;5040102;28;20040;-47
2021/12/14 10:26:57;;;;;;;75.95;31.83;;;;;;;8.35;98.31;102671.31;5036018;28;20028;-45
2021/12/14 10:29:25;;;;;;;71.85;30.27;;;;;;;8.37;98.28;102674.72;5051074;28;20029;-45
2021/12/14 10:31:58;;;;;;;72.70;29.45;;;;;;;8.36;98.96;102678.38;5037281;28;20079;-45
2021/12/14 10:34:26;;;;;;;69.72;29.60;;;;;;;8.35;99.07;102674.84;5048406;28;20038;-45
2021/12/14 10:37:09;;;;;;;72.03;29.35;;;;;;;8.33;99.25;102673.28;5039645;28;20030;-45
2021/12/14 10:39:40;;;;;;;73.35;28.33;;;;;;;8.36;99.53;102681.91;5030509;28;20064;-45
2021/12/14 10:44:59;;;;;;;65.53;26.92;;;;;;;8.38;100.00;102671.06;5047047;28;20044;-47
2021/12/14 10:47:28;;;;;;;60.10;26.55;;;;;;;8.40;100.00;102673.66;5034330;28;20053;-46
2021/12/14 10:49:55;;;;;;;67.50;26.27;;;;;;;8.40;100.00;102671.84;5048977;28;20025;-46
2021/12/14 10:52:26;;;;;;;62.83;24.80;;;;;;;8.40;100.00;102670.97;5049914;28;20531;-46
2021/12/14 10:54:56;;;;;;;60.13;25.77;;;;;;;8.44;100.00;102675.97;5042208;28;20029;-45
2021/12/14 10:57:26;;;;;;;63.83;24.15;;;;;;;8.44;100.00;102667.91;5046813;28;20033;-45
2021/12/14 10:59:53;;;;;;;53.30;24.60;;;;;;;8.46;100.00;102673.19;5050887;28;20553;-49
2021/12/14 11:02:22;;;;;;;53.95;24.70;;;;;;;8.42;100.00;102661.81;5036951;28;20036;-46
2021/12/14 11:04:57;;;;;;;55.90;24.65;;;;;;;8.44;100.00;102662.56;5039704;28;20049;-47
2021/12/14 11:07:29;;;;;;;55.17;22.35;;;;;;;8.48;100.00;102655.97;5045375;28;20497;-46
2021/12/14 11:10:35;;;;;;;61.40;25.25;;;;;;;8.51;100.00;102665.63;5043498;28;20049;-45
2021/12/14 11:13:04;;;;;;;58.08;22.38;;;;;;;8.53;100.00;102659.16;5008282;28;20045;-45
2021/12/14 11:15:35;;;;;;;51.60;21.85;;;;;;;8.55;100.00;102657.16;5047489;28;20037;-45
2021/12/14 11:18:09;;;;;;;56.22;21.77;;;;;;;8.55;100.00;102656.31;5041038;28;20062;-45
2021/12/14 11:20:49;;;;;;;53.95;20.58;;;;;;;8.54;100.00;102657.31;5048801;28;20036;-45
2021/12/14 11:23:21;;;;;;;49.47;20.98;;;;;;;8.60;100.00;102659.47;5050478;28;20024;-46
2021/12/14 11:25:52;;;;;;;53.17;20.73;;;;;;;8.61;100.00;102658.53;5049186;28;20029;-44
2021/12/14 11:28:33;;;;;;;38.70;19.92;;;;;;;8.63;100.00;102659.22;5053486;28;20033;-43
2021/12/14 11:31:24;;;;;;;48.03;20.42;;;;;;;8.63;100.00;102661.06;5051077;28;20053;-44
2021/12/14 11:34:01;;;;;;;43.60;20.40;;;;;;;8.59;99.89;102651.56;5036217;28;20113;-45
2021/12/14 11:36:35;;;;;;;42.22;20.75;;;;;;;8.62;100.00;102662.06;5042687;28;20483;-45
2021/12/14 11:39:08;;;;;;;48.35;19.40;;;;;;;8.60;99.83;102646.06;5054307;28;20546;-45
2021/12/14 11:41:49;;;;;;;43.63;19.83;;;;;;;8.62;99.82;102657.53;5054756;28;20123;-43
2021/12/14 11:44:20;;;;;;;48.55;22.10;;;;;;;8.64;99.52;102652.06;5039844;28;20036;-44
2021/12/14 11:47:06;;;;;;;45.80;19.95;;;;;;;8.64;99.96;102660.09;5038138;28;20386;-44
2021/12/14 11:49:49;;;;;;;42.13;19.30;;;;;;;8.63;99.79;102653.00;5034937;28;20117;-45
2021/12/14 11:52:37;;;;;;;54.47;20.33;;;;;;;8.63;99.96;102653.88;5036516;28;20087;-44
2021/12/14 11:55:15;;;;;;;49.47;19.13;;;;;;;8.59;99.64;102652.41;5038758;28;20119;-45
2021/12/14 11:57:40;;;;;;;49.20;19.15;;;;;;;8.60;99.90;102650.59;5044803;28;20057;-46
2021/12/14 12:00:10;;;;;;;43.67;18.00;;;;;;;8.61;99.69;102654.97;5053797;28;20122;-44
2021/12/14 12:02:35;;;;;;;40.58;17.48;;;;;;;8.61;99.84;102658.53;5044531;28;20544;-45
2021/12/14 12:05:16;;;;;;;43.85;18.45;;;;;;;8.64;99.57;102657.44;5045321;28;20025;-44
2021/12/14 12:10:41;;;;;;;44.53;17.17;;;;;;;8.64;99.53;102649.38;5051488;28;20048;-44
2021/12/14 12:13:06;;;;;;;50.28;18.77;;;;;;;8.64;99.62;102652.91;5039135;28;20140;-45
2021/12/14 12:15:38;;;;;;;46.97;18.13;;;;;;;8.66;99.80;102650.06;5036459;28;20100;-44
2021/12/14 12:18:03;;;;;;;55.75;17.85;;;;;;;8.66;99.51;102648.28;5049101;28;20147;-44
2021/12/14 12:20:38;;;;;;;43.80;18.13;;;;;;;8.69;99.65;102645.34;5052519;28;20025;-44
2021/12/14 12:23:05;;;;;;;43.95;17.38;;;;;;;8.71;99.39;102646.03;5062160;28;20399;-46
2021/12/14 12:25:32;;;;;;;45.55;16.88;;;;;;;8.75;99.38;102647.50;5055401;28;20090;-45
2021/12/14 12:28:04;;;;;;;49.75;16.15;;;;;;;8.75;99.35;102646.66;5054073;28;20377;-44
2021/12/14 12:30:46;;;;;;;40.28;15.82;;;;;;;8.80;98.95;102636.41;5051828;28;20025;-46
2021/12/14 12:33:43;;;;;;;32.42;15.25;;;;;;;8.84;98.68;102645.03;5054380;28;20032;-45
2021/12/14 12:36:16;;;;;;;46.08;16.67;;;;;;;8.85;98.68;102642.25;5052486;28;20041;-44
2021/12/14 12:38:55;;;;;;;50.00;16.60;;;;;;;8.84;98.30;102640.50;5052481;28;20400;-44
2021/12/14 12:41:26;;;;;;;36.75;16.40;;;;;;;8.86;98.60;102641.25;5027275;28;20113;-45
2021/12/14 12:44:25;;;;;;;35.75;16.88;;;;;;;8.86;98.65;102627.81;5034052;28;20032;-44
2021/12/14 12:46:54;;;;;;;46.92;16.98;;;;;;;8.85;98.43;102626.13;5047882;28;20185;-45
2021/12/14 12:49:23;;;;;;;43.05;16.15;;;;;;;8.84;98.52;102629.78;5049556;28;20040;-45
2021/12/14 12:51:56;;;;;;;44.50;17.42;;;;;;;8.89;98.64;102626.72;5035518;28;20065;-45
2021/12/14 12:54:42;;;;;;;41.55;15.80;;;;;;;8.90;98.39;102618.53;5038457;28;20059;-45
2021/12/14 12:57:08;;;;;;;41.42;15.57;;;;;;;8.95;98.58;102619.03;5038041;28;20037;-44
2021/12/14 13:00:18;;;;;;;35.15;14.38;;;;;;;8.98;98.26;102605.34;5044995;28;20550;-46
2021/12/14 13:02:55;;;;;;;39.67;16.23;;;;;;;9.04;97.95;102613.84;5055477;28;20024;-45
2021/12/14 13:05:29;;;;;;;39.67;16.42;;;;;;;9.05;97.93;102610.19;5045603;28;20030;-46
2021/12/14 13:08:03;;;;;;;41.42;16.02;;;;;;;9.06;98.26;102617.25;5041193;28;20024;-45
2021/12/14 13:10:34;;;;;;;48.58;15.35;;;;;;;9.07;97.92;102613.59;5045704;28;20495;-45
2021/12/14 13:13:16;;;;;;;47.35;15.98;;;;;;;9.05;97.93;102608.34;5045050;28;20029;-44
2021/12/14 13:15:57;;;;;;;44.72;15.65;;;;;;;9.07;97.91;102608.22;5052932;28;20025;-44
2021/12/14 13:18:44;;;;;;;42.22;14.85;;;;;;;9.13;98.03;102613.06;5033257;28;20059;-45
2021/12/14 13:21:17;;;;;;;34.85;14.82;;;;;;;9.19;97.96;102607.19;5047243;28;20033;-44
2021/12/14 13:24:04;;;;;;;37.55;15.10;;;;;;;9.24;97.82;102610.31;5052710;28;20108;-45
2021/12/14 13:26:44;;;;;;;42.47;14.80;;;;;;;9.28;97.69;102606.41;5046637;28;20039;-44
2021/12/14 13:29:12;;;;;;;41.20;15.27;;;;;;;9.35;97.21;102602.22;5042036;28;20078;-45
2021/12/14 13:31:42;;;;;;;37.20;15.57;;;;;;;9.35;96.53;102602.22;5049309;28;20028;-44
2021/12/14 13:34:30;;;;;;;33.00;14.55;;;;;;;9.37;96.92;102599.38;5047571;28;20056;-44
2021/12/14 13:36:57;;;;;;;35.22;14.35;;;;;;;9.36;96.58;102598.53;5050526;28;20045;-44
2021/12/14 13:39:23;;;;;;;40.67;14.75;;;;;;;9.39;96.58;102592.91;5039511;28;20053;-47
2021/12/14 13:42:07;;;;;;;39.28;13.73;;;;;;;9.38;96.48;102591.22;5035802;28;20468;-45
2021/12/14 13:44:36;;;;;;;39.60;13.55;;;;;;;9.41;96.71;102596.31;5044336;28;20437;-43
2021/12/14 13:47:06;;;;;;;33.05;12.57;;;;;;;9.44;96.63;102596.03;5036618;28;20120;-45
2021/12/14 13:49:32;;;;;;;42.05;12.25;;;;;;;9.50;96.76;102580.38;5050629;28;20052;-45
2021/12/14 13:51:58;;;;;;;41.08;12.48;;;;;;;9.51;96.55;102590.16;5051787;28;20115;-46
2021/12/14 13:54:24;;;;;;;37.88;12.18;;;;;;;9.53;96.21;102588.16;5039142;28;20108;-43
2021/12/14 13:56:50;;;;;;;33.58;10.90;;;;;;;9.53;96.39;102593.53;5042731;28;20033;-43
2021/12/14 13:59:16;;;;;;;38.97;11.35;;;;;;;9.54;96.16;102601.50;5037553;28;20032;-43
2021/12/14 14:01:47;;;;;;;28.67;10.90;;;;;;;9.58;96.26;102585.94;5032719;28;20029;-45
2021/12/14 14:04:19;;;;;;;33.08;10.38;;;;;;;9.62;96.04;102587.41;5046423;28;20041;-44
2021/12/14 14:06:45;;;;;;;26.35;9.48;;;;;;;9.68;96.00;102589.53;5032789;28;20055;-44
2021/12/14 14:09:23;;;;;;;31.08;9.95;;;;;;;9.68;95.62;102585.00;5047622;28;20548;-44
2021/12/14 14:11:55;;;;;;;32.53;9.77;;;;;;;9.73;95.62;102589.16;5041299;28;20547;-44
2021/12/14 14:14:29;;;;;;;36.90;9.68;;;;;;;9.76;95.30;102586.19;5051726;28;20036;-46
2021/12/14 14:17:01;;;;;;;20.65;9.43;;;;;;;9.78;95.39;102601.19;5033669;28;20037;-45
2021/12/14 14:19:43;;;;;;;27.30;9.48;;;;;;;9.78;95.18;102603.03;5032123;28;20120;-44
2021/12/14 14:22:11;;;;;;;22.40;8.10;;;;;;;9.80;95.10;102596.56;5043008;28;20090;-43
2021/12/14 14:24:39;;;;;;;32.15;8.55;;;;;;;9.84;94.61;102607.88;5048105;28;20032;-44
2021/12/14 14:27:06;;;;;;;;;;;;;;;9.84;94.60;102597.97;5042527;28;20109;-44
2021/12/14 14:29:47;;;;;;;32.63;8.68;;;;;;;9.86;94.36;102604.06;5047729;28;20284;-44
2021/12/14 14:32:25;;;;;;;24.02;8.23;;;;;;;9.89;94.19;102611.88;5048610;28;20037;-45
2021/12/14 14:34:54;;;;;;;31.95;7.30;;;;;;;9.88;94.17;102610.16;5041902;28;20032;-44
2021/12/14 14:37:36;;;;;;;31.48;7.78;;;;;;;9.92;94.12;102609.91;5035803;28;20076;-45
2021/12/14 14:40:17;;;;;;;27.00;7.57;;;;;;;9.89;94.04;102609.19;5035785;28;20029;-44
2021/12/14 14:42:51;;;;;;;25.90;7.43;;;;;;;9.89;94.31;102617.25;5037110;28;20493;-44
2021/12/14 14:45:26;;;;;;;25.67;6.93;;;;;;;9.88;94.86;102620.94;5045987;28;20029;-45
2021/12/14 14:47:52;;;;;;;20.50;6.13;;;;;;;9.86;95.49;102616.66;5043517;28;20037;-43
2021/12/14 14:50:19;;;;;;;20.48;6.85;;;;;;;9.84;96.15;102616.78;5033042;28;20055;-44
2021/12/14 14:53:02;;;;;;;30.98;7.07;;;;;;;9.81;96.49;102630.50;5046796;28;20025;-43
2021/12/14 14:55:35;;;;;;;29.83;6.97;;;;;;;9.80;97.03;102623.44;5041429;28;20049;-44
2021/12/14 14:58:17;;;;;;;22.67;6.82;;;;;;;9.79;97.00;102627.09;5046196;28;20509;-44
2021/12/14 15:00:57;;;;;;;26.42;7.32;;;;;;;9.77;97.15;102639.84;5035272;28;20435;-44
2021/12/14 15:03:25;;;;;;;36.33;7.40;;;;;;;9.69;97.47;102631.59;5053952;28;20048;-43
2021/12/14 15:05:53;;;;;;;;;;;;;;;9.66;98.05;102631.84;5038443;28;20458;-45
2021/12/14 15:08:32;;;;;;;34.83;8.93;;;;;;;9.61;98.03;102634.06;5036636;28;19912;-46
2021/12/14 15:11:10;;;;;;;33.22;8.55;;;;;;;9.55;98.37;102630.06;5035323;28;20393;-43
2021/12/14 15:13:51;;;;;;;37.55;8.60;;;;;;;9.50;98.85;102636.81;5035609;28;20029;-44
2021/12/14 15:16:19;;;;;;;29.83;9.30;;;;;;;9.50;99.07;102643.03;5038555;28;20064;-44
2021/12/14 15:18:52;;;;;;;29.52;8.65;;;;;;;9.49;99.05;102643.19;5038470;28;20091;-45
2021/12/14 15:21:59;;;;;;;34.42;9.10;;;;;;;9.48;99.07;102644.16;5038493;28;20025;-44
2021/12/14 15:24:25;;;;;;;35.20;8.73;;;;;;;9.46;99.34;102647.00;5060907;28;20381;-44
2021/12/14 15:27:05;;;;;;;39.53;10.68;;;;;;;9.43;99.49;102653.47;5040326;28;20120;-44
2021/12/14 15:29:31;;;;;;;32.67;9.73;;;;;;;9.43;99.27;102641.88;5035221;28;20385;-43
2021/12/14 15:32:19;;;;;;;39.72;10.25;;;;;;;9.42;99.52;102641.00;5043205;28;20037;-44
2021/12/14 15:35:09;;;;;;;40.60;10.18;;;;;;;9.45;99.54;102645.25;5043782;28;20041;-44
2021/12/14 15:37:36;;;;;;;35.13;10.88;;;;;;;9.42;99.73;102654.44;5050754;28;20112;-45
2021/12/14 15:40:04;;;;;;;39.03;12.38;;;;;;;9.40;99.63;102653.75;5045477;28;20026;-43
2021/12/14 15:42:30;;;;;;;35.25;11.38;;;;;;;9.33;100.00;102657.06;5045220;28;20029;-43
2021/12/14 15:44:56;;;;;;;50.20;11.88;;;;;;;9.35;99.85;102653.28;5046506;28;20533;-46
2021/12/14 15:47:21;;;;;;;36.00;11.20;;;;;;;9.34;100.00;102648.03;5043433;28;20508;-43
2021/12/14 15:49:47;;;;;;;44.33;12.32;;;;;;;9.31;99.89;102653.66;5035849;28;20061;-45
2021/12/14 15:52:18;;;;;;;54.55;14.43;;;;;;;9.29;99.86;102652.94;5033060;28;20079;-45
2021/12/14 15:54:46;;;;;;;46.78;11.90;;;;;;;9.27;99.87;102655.75;5033037;28;20089;-44
2021/12/14 15:57:19;;;;;;;49.90;12.47;;;;;;;9.26;99.64;102659.41;5050677;28;20095;-44
2021/12/14 15:59:51;;;;;;;37.50;10.70;;;;;;;9.22;99.62;102652.59;5032193;28;20082;-46
2021/12/14 16:02:20;;;;;;;47.22;12.27;;;;;;;9.24;99.74;102658.69;5041431;28;20060;-45
2021/12/14 16:04:57;;;;;;;43.95;11.02;;;;;;;9.24;100.00;102653.31;5040066;28;20024;-44